sensor_id;sensor_type;location;lat;lon;timestamp;pressure;altitude;pressure_sealevel;temperature;humidity
77077;BME280;66003;52.286;104.306;2023-02-11T00:01:52;97560.28;;;-13.90;51.39
77077;BME280;66003;52.286;104.306;2023-02-11T00:04:18;97604.44;;;-13.70;51.23
77077;BME280;66003;52.286;104.306;2023-02-11T00:06:44;97615.22;;;-13.65;51.68
77077;BME280;66003;52.286;104.306;2023-02-11T00:09:10;97627.47;;;-13.56;51.97
77077;BME280;66003;52.286;104.306;2023-02-11T00:11:36;97604.16;;;-13.80;54.14
77077;BME280;66003;52.286;104.306;2023-02-11T00:14:04;97647.16;;;-13.42;53.79
77077;BME280;66003;52.286;104.306;2023-02-11T00:16:32;97647.69;;;-13.37;53.61
77077;BME280;66003;52.286;104.306;2023-02-11T00:18:59;97615.50;;;-13.30;52.68
77077;BME280;66003;52.286;104.306;2023-02-11T00:21:26;97671.28;;;-12.93;51.75
77077;BME280;66003;52.286;104.306;2023-02-11T00:23:52;97665.63;;;-12.85;52.55
77077;BME280;66003;52.286;104.306;2023-02-11T00:26:22;97672.03;;;-12.91;53.28
77077;BME280;66003;52.286;104.306;2023-02-11T00:28:49;97639.78;;;-13.09;53.04
77077;BME280;66003;52.286;104.306;2023-02-11T00:31:17;97685.63;;;-12.76;53.10
77077;BME280;66003;52.286;104.306;2023-02-11T00:33:44;97686.47;;;-12.63;52.59
77077;BME280;66003;52.286;104.306;2023-02-11T00:36:17;97661.13;;;-12.69;52.11
77077;BME280;66003;52.286;104.306;2023-02-11T00:38:45;97654.66;;;-12.74;53.23
77077;BME280;66003;52.286;104.306;2023-02-11T00:41:12;97709.41;;;-12.22;53.11
77077;BME280;66003;52.286;104.306;2023-02-11T00:43:39;97690.34;;;-12.19;51.81
77077;BME280;66003;52.286;104.306;2023-02-11T00:46:06;97699.09;;;-12.09;51.98
77077;BME280;66003;52.286;104.306;2023-02-11T00:48:32;97700.44;;;-12.03;52.92
77077;BME280;66003;52.286;104.306;2023-02-11T00:50:59;97702.44;;;-11.83;52.12
77077;BME280;66003;52.286;104.306;2023-02-11T00:53:26;97668.44;;;-11.88;51.87
77077;BME280;66003;52.286;104.306;2023-02-11T00:55:52;97719.53;;;-11.46;51.47
77077;BME280;66003;52.286;104.306;2023-02-11T00:58:18;97704.88;;;-11.45;51.13
77077;BME280;66003;52.286;104.306;2023-02-11T01:00:44;97720.78;;;-11.27;50.94
77077;BME280;66003;52.286;104.306;2023-02-11T01:03:10;97724.69;;;-11.22;50.24
77077;BME280;66003;52.286;104.306;2023-02-11T01:05:36;97730.59;;;-11.09;49.95
77077;BME280;66003;52.286;104.306;2023-02-11T01:08:02;97700.06;;;-11.26;49.78
77077;BME280;66003;52.286;104.306;2023-02-11T01:10:29;97735.00;;;-10.98;49.16
77077;BME280;66003;52.286;104.306;2023-02-11T01:12:55;97736.91;;;-10.89;48.93
77077;BME280;66003;52.286;104.306;2023-02-11T01:15:21;97737.13;;;-10.92;48.53
77077;BME280;66003;52.286;104.306;2023-02-11T01:17:47;97712.25;;;-10.93;48.45
77077;BME280;66003;52.286;104.306;2023-02-11T01:20:19;97716.22;;;-11.00;49.24
77077;BME280;66003;52.286;104.306;2023-02-11T01:22:46;97772.00;;;-10.63;49.53
77077;BME280;66003;52.286;104.306;2023-02-11T01:25:13;97720.88;;;-10.81;48.96
77077;BME280;66003;52.286;104.306;2023-02-11T01:27:39;97709.25;;;-10.87;49.35
77077;BME280;66003;52.286;104.306;2023-02-11T01:30:07;97737.72;;;-10.65;48.98
77077;BME280;66003;52.286;104.306;2023-02-11T01:32:34;97797.34;;;-10.22;48.75
77077;BME280;66003;52.286;104.306;2023-02-11T01:35:00;97791.72;;;-10.27;49.11
77077;BME280;66003;52.286;104.306;2023-02-11T01:37:31;97780.38;;;-10.37;48.53
77077;BME280;66003;52.286;104.306;2023-02-11T01:39:57;97810.38;;;-10.12;49.42
77077;BME280;66003;52.286;104.306;2023-02-11T01:42:23;97803.91;;;-10.17;49.72
77077;BME280;66003;52.286;104.306;2023-02-11T01:44:51;97770.91;;;-10.25;49.12
77077;BME280;66003;52.286;104.306;2023-02-11T01:47:18;97790.88;;;-10.16;49.27
77077;BME280;66003;52.286;104.306;2023-02-11T01:49:48;97787.50;;;-10.05;49.50
77077;BME280;66003;52.286;104.306;2023-02-11T01:52:23;97787.28;;;-9.91;49.01
77077;BME280;66003;52.286;104.306;2023-02-11T01:54:57;97830.19;;;-9.55;48.71
77077;BME280;66003;52.286;104.306;2023-02-11T01:57:46;97821.03;;;-9.48;48.61
77077;BME280;66003;52.286;104.306;2023-02-11T02:00:20;97842.88;;;-9.30;47.97
77077;BME280;66003;52.286;104.306;2023-02-11T02:03:09;97849.47;;;-9.26;47.92
77077;BME280;66003;52.286;104.306;2023-02-11T02:08:22;97843.22;;;-9.12;47.52
77077;BME280;66003;52.286;104.306;2023-02-11T02:10:51;97840.50;;;-8.99;46.51
77077;BME280;66003;52.286;104.306;2023-02-11T02:13:25;97856.94;;;-8.78;45.94
77077;BME280;66003;52.286;104.306;2023-02-11T02:16:14;97845.41;;;-8.74;45.50
77077;BME280;66003;52.286;104.306;2023-02-11T02:27:34;97875.38;;;-7.24;43.75
77077;BME280;66003;52.286;104.306;2023-02-11T02:35:47;97882.72;;;-6.01;40.76
77077;BME280;66003;52.286;104.306;2023-02-11T02:38:23;97879.97;;;-5.24;40.64
77077;BME280;66003;52.286;104.306;2023-02-11T02:41:21;97880.03;;;-4.69;41.10
77077;BME280;66003;52.286;104.306;2023-02-11T02:43:49;97863.38;;;-5.23;41.28
77077;BME280;66003;52.286;104.306;2023-02-11T02:46:19;97896.44;;;-5.24;39.99
77077;BME280;66003;52.286;104.306;2023-02-11T02:48:47;97865.25;;;-5.53;39.32
77077;BME280;66003;52.286;104.306;2023-02-11T02:51:44;97909.19;;;-5.21;38.29
77077;BME280;66003;52.286;104.306;2023-02-11T02:56:56;97861.97;;;-5.64;38.71
77077;BME280;66003;52.286;104.306;2023-02-11T03:02:30;97938.06;;;-5.80;38.28
77077;BME280;66003;52.286;104.306;2023-02-11T03:05:25;97941.50;;;-5.89;39.47
77077;BME280;66003;52.286;104.306;2023-02-11T03:08:01;97947.00;;;-6.02;39.46
77077;BME280;66003;52.286;104.306;2023-02-11T03:10:45;97943.69;;;-6.04;40.97
77077;BME280;66003;52.286;104.306;2023-02-11T03:13:13;97956.28;;;-5.99;39.70
77077;BME280;66003;52.286;104.306;2023-02-11T03:15:47;97958.63;;;-5.96;42.12
77077;BME280;66003;52.286;104.306;2023-02-11T03:18:16;97952.72;;;-5.98;38.94
77077;BME280;66003;52.286;104.306;2023-02-11T03:20:46;97962.00;;;-5.76;39.31
77077;BME280;66003;52.286;104.306;2023-02-11T03:23:28;97947.06;;;-5.74;39.45
77077;BME280;66003;52.286;104.306;2023-02-11T03:26:43;97970.63;;;-5.76;37.97
77077;BME280;66003;52.286;104.306;2023-02-11T03:31:43;97983.38;;;-5.63;37.90
77077;BME280;66003;52.286;104.306;2023-02-11T03:36:53;97954.72;;;-5.34;37.52
77077;BME280;66003;52.286;104.306;2023-02-11T03:39:26;97950.56;;;-5.18;36.95
77077;BME280;66003;52.286;104.306;2023-02-11T03:41:54;97986.56;;;-4.75;36.67
77077;BME280;66003;52.286;104.306;2023-02-11T03:44:26;98008.69;;;-4.51;36.68
77077;BME280;66003;52.286;104.306;2023-02-11T03:46:55;97962.50;;;-4.68;35.88
77077;BME280;66003;52.286;104.306;2023-02-11T03:49:25;97986.53;;;-4.38;35.81
77077;BME280;66003;52.286;104.306;2023-02-11T03:51:53;97994.81;;;-3.97;36.33
77077;BME280;66003;52.286;104.306;2023-02-11T03:54:25;98018.38;;;-3.79;35.17
77077;BME280;66003;52.286;104.306;2023-02-11T03:56:57;97946.03;;;-3.96;34.65
77077;BME280;66003;52.286;104.306;2023-02-11T03:59:24;97977.41;;;-3.43;34.71
77077;BME280;66003;52.286;104.306;2023-02-11T04:01:51;98000.59;;;-3.22;33.89
77077;BME280;66003;52.286;104.306;2023-02-11T04:04:17;98003.25;;;-3.14;35.31
77077;BME280;66003;52.286;104.306;2023-02-11T04:06:44;97996.28;;;-3.32;33.82
77077;BME280;66003;52.286;104.306;2023-02-11T04:09:10;97987.47;;;-3.31;36.25
77077;BME280;66003;52.286;104.306;2023-02-11T04:11:36;98015.53;;;-2.89;34.43
77077;BME280;66003;52.286;104.306;2023-02-11T04:14:03;97990.50;;;-2.92;33.85
77077;BME280;66003;52.286;104.306;2023-02-11T04:16:29;98013.84;;;-2.46;33.33
77077;BME280;66003;52.286;104.306;2023-02-11T04:18:56;97976.56;;;-2.40;33.49
77077;BME280;66003;52.286;104.306;2023-02-11T04:21:22;97968.50;;;-2.55;32.14
77077;BME280;66003;52.286;104.306;2023-02-11T04:23:48;98008.53;;;-2.29;33.00
77077;BME280;66003;52.286;104.306;2023-02-11T04:26:14;97987.66;;;-2.46;32.95
77077;BME280;66003;52.286;104.306;2023-02-11T04:28:41;97979.34;;;-2.42;33.12
77077;BME280;66003;52.286;104.306;2023-02-11T04:31:07;98019.41;;;-2.49;32.88
77077;BME280;66003;52.286;104.306;2023-02-11T04:33:33;98029.91;;;-2.41;33.20
77077;BME280;66003;52.286;104.306;2023-02-11T04:35:59;97970.31;;;-3.07;32.76
77077;BME280;66003;52.286;104.306;2023-02-11T04:38:25;98026.13;;;-2.73;34.00
77077;BME280;66003;52.286;104.306;2023-02-11T04:40:52;98038.50;;;-3.18;34.06
77077;BME280;66003;52.286;104.306;2023-02-11T04:43:18;98001.34;;;-3.66;34.30
77077;BME280;66003;52.286;104.306;2023-02-11T04:45:44;98001.88;;;-3.62;35.25
77077;BME280;66003;52.286;104.306;2023-02-11T04:48:10;98005.72;;;-3.84;35.08
77077;BME280;66003;52.286;104.306;2023-02-11T04:50:36;98006.56;;;-3.83;34.90
77077;BME280;66003;52.286;104.306;2023-02-11T04:53:02;98028.44;;;-3.67;35.30
77077;BME280;66003;52.286;104.306;2023-02-11T04:55:28;98016.31;;;-4.03;34.53
77077;BME280;66003;52.286;104.306;2023-02-11T04:57:55;98048.53;;;-3.67;35.38
77077;BME280;66003;52.286;104.306;2023-02-11T05:00:21;98026.69;;;-3.93;35.08
77077;BME280;66003;52.286;104.306;2023-02-11T05:02:47;98022.38;;;-3.85;35.03
77077;BME280;66003;52.286;104.306;2023-02-11T05:05:13;98061.41;;;-3.66;35.18
77077;BME280;66003;52.286;104.306;2023-02-11T05:07:39;98025.94;;;-4.04;34.99
77077;BME280;66003;52.286;104.306;2023-02-11T05:10:06;98069.16;;;-3.91;35.36
77077;BME280;66003;52.286;104.306;2023-02-11T05:12:32;98052.31;;;-4.07;35.42
77077;BME280;66003;52.286;104.306;2023-02-11T05:14:58;98058.69;;;-4.19;35.78
77077;BME280;66003;52.286;104.306;2023-02-11T05:17:24;98070.78;;;-4.18;35.91
77077;BME280;66003;52.286;104.306;2023-02-11T05:19:50;98071.22;;;-4.32;36.05
77077;BME280;66003;52.286;104.306;2023-02-11T05:22:16;98081.41;;;-4.29;36.75
77077;BME280;66003;52.286;104.306;2023-02-11T05:24:42;98097.47;;;-4.33;36.54
77077;BME280;66003;52.286;104.306;2023-02-11T05:27:08;98112.16;;;-4.32;36.67
77077;BME280;66003;52.286;104.306;2023-02-11T05:29:34;98068.44;;;-4.58;36.75
77077;BME280;66003;52.286;104.306;2023-02-11T05:32:00;98116.19;;;-4.57;36.84
77077;BME280;66003;52.286;104.306;2023-02-11T05:34:27;98104.25;;;-4.50;37.05
77077;BME280;66003;52.286;104.306;2023-02-11T05:36:53;98094.50;;;-4.58;36.80
77077;BME280;66003;52.286;104.306;2023-02-11T05:39:19;98095.53;;;-4.31;37.03
77077;BME280;66003;52.286;104.306;2023-02-11T05:41:45;98079.00;;;-4.50;36.96
77077;BME280;66003;52.286;104.306;2023-02-11T05:44:11;98105.97;;;-4.31;37.16
77077;BME280;66003;52.286;104.306;2023-02-11T05:46:37;98083.94;;;-4.56;36.99
77077;BME280;66003;52.286;104.306;2023-02-11T05:49:04;98076.13;;;-4.56;37.46
77077;BME280;66003;52.286;104.306;2023-02-11T05:51:30;98121.50;;;-4.30;38.27
77077;BME280;66003;52.286;104.306;2023-02-11T05:53:56;98087.00;;;-4.61;38.78
77077;BME280;66003;52.286;104.306;2023-02-11T05:56:22;98089.44;;;-4.69;38.15
77077;BME280;66003;52.286;104.306;2023-02-11T05:58:48;98092.59;;;-4.56;38.46
77077;BME280;66003;52.286;104.306;2023-02-11T06:01:14;98131.75;;;-4.19;38.05
77077;BME280;66003;52.286;104.306;2023-02-11T06:03:40;98126.59;;;-4.01;37.54
77077;BME280;66003;52.286;104.306;2023-02-11T06:06:10;98141.88;;;-3.69;37.25
77077;BME280;66003;52.286;104.306;2023-02-11T06:08:37;98103.91;;;-3.91;36.90
77077;BME280;66003;52.286;104.306;2023-02-11T06:11:03;98100.91;;;-3.96;37.51
77077;BME280;66003;52.286;104.306;2023-02-11T06:13:29;98138.13;;;-3.94;37.68
77077;BME280;66003;52.286;104.306;2023-02-11T06:15:57;98149.19;;;-4.10;38.23
77077;BME280;66003;52.286;104.306;2023-02-11T06:18:23;98097.91;;;-4.48;38.18
77077;BME280;66003;52.286;104.306;2023-02-11T06:20:50;98150.81;;;-4.09;38.48
77077;BME280;66003;52.286;104.306;2023-02-11T06:23:16;98126.28;;;-4.16;37.76
77077;BME280;66003;52.286;104.306;2023-02-11T06:25:42;98128.00;;;-4.07;38.06
77077;BME280;66003;52.286;104.306;2023-02-11T06:28:08;98129.16;;;-4.19;37.34
77077;BME280;66003;52.286;104.306;2023-02-11T06:30:36;98156.75;;;-4.16;37.85
77077;BME280;66003;52.286;104.306;2023-02-11T06:33:02;98134.88;;;-4.62;37.81
77077;BME280;66003;52.286;104.306;2023-02-11T06:35:28;98135.41;;;-4.58;38.35
77077;BME280;66003;52.286;104.306;2023-02-11T06:37:54;98183.72;;;-4.45;38.49
77077;BME280;66003;52.286;104.306;2023-02-11T06:40:20;98179.09;;;-4.51;38.69
77077;BME280;66003;52.286;104.306;2023-02-11T06:42:46;98117.63;;;-5.01;38.50
77077;BME280;66003;52.286;104.306;2023-02-11T06:45:12;98170.16;;;-4.67;38.17
77077;BME280;66003;52.286;104.306;2023-02-11T06:47:39;98178.13;;;-4.79;38.49
77077;BME280;66003;52.286;104.306;2023-02-11T06:50:07;98145.34;;;-5.20;38.80
77077;BME280;66003;52.286;104.306;2023-02-11T06:52:34;98144.19;;;-5.36;38.95
77077;BME280;66003;52.286;104.306;2023-02-11T06:55:00;98167.88;;;-5.59;39.46
77077;BME280;66003;52.286;104.306;2023-02-11T06:57:28;98191.19;;;-5.57;39.62
77077;BME280;66003;52.286;104.306;2023-02-11T06:59:54;98159.16;;;-5.88;40.16
77077;BME280;66003;52.286;104.306;2023-02-11T07:02:20;98189.19;;;-5.74;40.51
77077;BME280;66003;52.286;104.306;2023-02-11T07:04:46;98207.44;;;-5.65;39.91
77077;BME280;66003;52.286;104.306;2023-02-11T07:07:12;98159.81;;;-5.86;40.53
77077;BME280;66003;52.286;104.306;2023-02-11T07:09:38;98164.53;;;-5.70;40.51
77077;BME280;66003;52.286;104.306;2023-02-11T07:12:05;98168.16;;;-5.42;40.17
77077;BME280;66003;52.286;104.306;2023-02-11T07:14:31;98168.50;;;-5.07;39.78
77077;BME280;66003;52.286;104.306;2023-02-11T07:16:57;98197.75;;;-4.75;39.22
77077;BME280;66003;52.286;104.306;2023-02-11T07:19:23;98186.91;;;-4.80;39.25
77077;BME280;66003;52.286;104.306;2023-02-11T07:21:49;98208.72;;;-4.71;39.20
77077;BME280;66003;52.286;104.306;2023-02-11T07:24:15;98211.19;;;-4.69;39.39
77077;BME280;66003;52.286;104.306;2023-02-11T07:26:42;98216.97;;;-4.56;39.41
77077;BME280;66003;52.286;104.306;2023-02-11T07:29:09;98210.50;;;-4.52;39.45
77077;BME280;66003;52.286;104.306;2023-02-11T07:31:35;98217.38;;;-4.51;39.96
77077;BME280;66003;52.286;104.306;2023-02-11T07:34:01;98193.06;;;-4.90;40.27
77077;BME280;66003;52.286;104.306;2023-02-11T07:36:30;98214.50;;;-4.96;40.48
77077;BME280;66003;52.286;104.306;2023-02-11T07:38:59;98222.81;;;-5.22;40.44
77077;BME280;66003;52.286;104.306;2023-02-11T07:41:26;98228.25;;;-5.34;40.95
77077;BME280;66003;52.286;104.306;2023-02-11T07:43:52;98232.16;;;-5.50;41.02
77077;BME280;66003;52.286;104.306;2023-02-11T07:46:24;98197.06;;;-5.95;41.64
77077;BME280;66003;52.286;104.306;2023-02-11T07:48:50;98214.41;;;-6.05;41.76
77077;BME280;66003;52.286;104.306;2023-02-11T07:51:27;98224.91;;;-6.16;42.17
77077;BME280;66003;52.286;104.306;2023-02-11T07:53:56;98225.09;;;-6.29;42.75
77077;BME280;66003;52.286;104.306;2023-02-11T07:56:23;98191.66;;;-6.54;42.28
77077;BME280;66003;52.286;104.306;2023-02-11T07:58:49;98233.38;;;-6.35;42.90
77077;BME280;66003;52.286;104.306;2023-02-11T08:01:21;98183.69;;;-6.63;43.15
77077;BME280;66003;52.286;104.306;2023-02-11T08:03:49;98201.47;;;-6.58;43.31
77077;BME280;66003;52.286;104.306;2023-02-11T08:06:17;98226.94;;;-6.41;43.05
77077;BME280;66003;52.286;104.306;2023-02-11T08:08:45;98250.41;;;-6.31;43.36
77077;BME280;66003;52.286;104.306;2023-02-11T08:11:20;98209.97;;;-6.56;43.02
77077;BME280;66003;52.286;104.306;2023-02-11T08:13:46;98221.91;;;-6.53;43.27
77077;BME280;66003;52.286;104.306;2023-02-11T08:16:25;98259.16;;;-6.32;43.37
77077;BME280;66003;52.286;104.306;2023-02-11T08:18:52;98245.06;;;-6.50;43.32
77077;BME280;66003;52.286;104.306;2023-02-11T08:21:20;98220.25;;;-6.75;43.47
77077;BME280;66003;52.286;104.306;2023-02-11T08:23:46;98187.50;;;-6.99;43.26
77077;BME280;66003;52.286;104.306;2023-02-11T08:26:16;98265.91;;;-6.62;43.45
77077;BME280;66003;52.286;104.306;2023-02-11T08:28:44;98255.69;;;-6.74;43.51
77077;BME280;66003;52.286;104.306;2023-02-11T08:31:16;98231.97;;;-6.92;43.62
77077;BME280;66003;52.286;104.306;2023-02-11T08:33:43;98250.25;;;-6.82;43.95
77077;BME280;66003;52.286;104.306;2023-02-11T08:36:12;98251.69;;;-6.89;43.72
77077;BME280;66003;52.286;104.306;2023-02-11T08:38:38;98240.16;;;-7.08;44.26
77077;BME280;66003;52.286;104.306;2023-02-11T08:41:05;98247.00;;;-7.07;44.34
77077;BME280;66003;52.286;104.306;2023-02-11T08:43:31;98250.44;;;-7.06;44.04
77077;BME280;66003;52.286;104.306;2023-02-11T08:45:58;98276.53;;;-7.08;44.89
77077;BME280;66003;52.286;104.306;2023-02-11T08:48:25;98296.97;;;-7.03;44.75
77077;BME280;66003;52.286;104.306;2023-02-11T08:50:56;98295.81;;;-7.10;45.06
77077;BME280;66003;52.286;104.306;2023-02-11T08:53:22;98298.63;;;-7.13;44.91
77077;BME280;66003;52.286;104.306;2023-02-11T08:55:50;98300.53;;;-7.15;44.65
77077;BME280;66003;52.286;104.306;2023-02-11T08:58:17;98296.16;;;-7.26;44.91
77077;BME280;66003;52.286;104.306;2023-02-11T09:00:43;98273.53;;;-7.46;45.22
77077;BME280;66003;52.286;104.306;2023-02-11T09:03:11;98280.00;;;-7.52;45.20
77077;BME280;66003;52.286;104.306;2023-02-11T09:05:41;98282.81;;;-7.66;46.03
77077;BME280;66003;52.286;104.306;2023-02-11T09:08:07;98303.75;;;-7.56;46.71
77077;BME280;66003;52.286;104.306;2023-02-11T09:10:33;98258.06;;;-7.81;45.97
77077;BME280;66003;52.286;104.306;2023-02-11T09:13:00;98230.34;;;-8.03;46.22
77077;BME280;66003;52.286;104.306;2023-02-11T09:15:26;98283.91;;;-7.80;46.65
77077;BME280;66003;52.286;104.306;2023-02-11T09:17:52;98320.38;;;-7.59;46.10
77077;BME280;66003;52.286;104.306;2023-02-11T09:20:18;98316.31;;;-7.74;46.77
77077;BME280;66003;52.286;104.306;2023-02-11T09:22:44;98329.19;;;-7.73;46.78
77077;BME280;66003;52.286;104.306;2023-02-11T09:25:11;98322.94;;;-7.81;46.94
77077;BME280;66003;52.286;104.306;2023-02-11T09:27:38;98313.72;;;-7.85;46.34
77077;BME280;66003;52.286;104.306;2023-02-11T09:30:04;98303.06;;;-8.05;47.13
77077;BME280;66003;52.286;104.306;2023-02-11T09:32:30;98340.00;;;-7.90;46.69
77077;BME280;66003;52.286;104.306;2023-02-11T09:34:57;98227.66;;;-8.59;47.05
77077;BME280;66003;52.286;104.306;2023-02-11T09:37:23;98293.34;;;-8.25;46.39
77077;BME280;66003;52.286;104.306;2023-02-11T09:39:49;98340.41;;;-8.18;47.57
77077;BME280;66003;52.286;104.306;2023-02-11T09:44:55;98296.31;;;-8.64;48.26
77077;BME280;66003;52.286;104.306;2023-02-11T09:47:31;98355.78;;;-8.39;48.42
77077;BME280;66003;52.286;104.306;2023-02-11T09:50:06;98309.94;;;-8.73;48.13
77077;BME280;66003;52.286;104.306;2023-02-11T09:52:43;98364.00;;;-8.45;47.42
77077;BME280;66003;52.286;104.306;2023-02-11T09:55:24;98357.81;;;-8.55;47.95
77077;BME280;66003;52.286;104.306;2023-02-11T09:57:51;98360.97;;;-8.63;47.64
77077;BME280;66003;52.286;104.306;2023-02-11T10:00:32;98315.91;;;-8.97;48.14
77077;BME280;66003;52.286;104.306;2023-02-11T10:03:20;98332.66;;;-8.90;47.28
77077;BME280;66003;52.286;104.306;2023-02-11T10:06:02;98375.00;;;-8.78;48.27
77077;BME280;66003;52.286;104.306;2023-02-11T10:16:45;98386.97;;;-9.01;49.23
77077;BME280;66003;52.286;104.306;2023-02-11T10:24:27;98382.09;;;-9.05;50.25
77077;BME280;66003;52.286;104.306;2023-02-11T10:26:53;98346.22;;;-9.35;50.26
77077;BME280;66003;52.286;104.306;2023-02-11T10:31:57;98385.34;;;-9.15;50.18
77077;BME280;66003;52.286;104.306;2023-02-11T10:34:24;98390.63;;;-9.16;50.19
77077;BME280;66003;52.286;104.306;2023-02-11T10:36:50;98371.19;;;-9.34;50.46
77077;BME280;66003;52.286;104.306;2023-02-11T10:39:20;98365.38;;;-9.38;51.39
77077;BME280;66003;52.286;104.306;2023-02-11T10:41:59;98401.31;;;-9.21;51.59
77077;BME280;66003;52.286;104.306;2023-02-11T10:44:33;98376.56;;;-9.37;51.37
77077;BME280;66003;52.286;104.306;2023-02-11T10:47:14;98406.25;;;-9.18;51.95
77077;BME280;66003;52.286;104.306;2023-02-11T10:49:45;98413.81;;;-9.15;52.07
77077;BME280;66003;52.286;104.306;2023-02-11T10:52:13;98411.75;;;-9.09;51.54
77077;BME280;66003;52.286;104.306;2023-02-11T10:54:40;98416.50;;;-9.16;51.73
77077;BME280;66003;52.286;104.306;2023-02-11T10:57:11;98402.25;;;-9.22;51.72
77077;BME280;66003;52.286;104.306;2023-02-11T10:59:43;98412.47;;;-9.20;52.17
77077;BME280;66003;52.286;104.306;2023-02-11T11:02:23;98311.78;;;-9.87;52.17
77077;BME280;66003;52.286;104.306;2023-02-11T11:05:00;98411.97;;;-9.25;52.45
77077;BME280;66003;52.286;104.306;2023-02-11T11:07:28;98398.09;;;-9.37;52.04
77077;BME280;66003;52.286;104.306;2023-02-11T11:10:05;98444.69;;;-9.12;50.99
77077;BME280;66003;52.286;104.306;2023-02-11T11:12:46;98453.88;;;-9.20;52.20
77077;BME280;66003;52.286;104.306;2023-02-11T11:15:14;98447.38;;;-9.26;51.78
77077;BME280;66003;52.286;104.306;2023-02-11T11:17:43;98442.50;;;-9.43;53.82
77077;BME280;66003;52.286;104.306;2023-02-11T11:20:20;98422.84;;;-9.58;52.58
77077;BME280;66003;52.286;104.306;2023-02-11T11:22:48;98451.72;;;-9.39;53.37
77077;BME280;66003;52.286;104.306;2023-02-11T11:25:27;98464.84;;;-9.29;52.18
77077;BME280;66003;52.286;104.306;2023-02-11T11:27:56;98450.59;;;-9.35;52.05
77077;BME280;66003;52.286;104.306;2023-02-11T11:30:30;98474.47;;;-9.31;52.54
77077;BME280;66003;52.286;104.306;2023-02-11T11:33:01;98470.25;;;-9.32;52.28
77077;BME280;66003;52.286;104.306;2023-02-11T11:35:29;98416.50;;;-9.67;52.39
77077;BME280;66003;52.286;104.306;2023-02-11T11:38:00;98434.00;;;-9.70;52.73
77077;BME280;66003;52.286;104.306;2023-02-11T11:40:28;98426.00;;;-9.80;52.44
77077;BME280;66003;52.286;104.306;2023-02-11T11:45:51;98498.97;;;-9.62;50.64
77077;BME280;66003;52.286;104.306;2023-02-11T11:48:37;98470.38;;;-10.13;51.68
77077;BME280;66003;52.286;104.306;2023-02-11T11:51:09;98501.69;;;-10.17;52.51
77077;BME280;66003;52.286;104.306;2023-02-11T11:56:10;98466.25;;;-10.42;51.63
77077;BME280;66003;52.286;104.306;2023-02-11T11:58:38;98488.78;;;-10.44;50.49
77077;BME280;66003;52.286;104.306;2023-02-11T12:09:33;98476.19;;;-11.06;49.82
77077;BME280;66003;52.286;104.306;2023-02-11T12:14:55;98539.81;;;-10.90;50.97
77077;BME280;66003;52.286;104.306;2023-02-11T12:23:31;98559.81;;;-11.38;53.92
77077;BME280;66003;52.286;104.306;2023-02-11T12:26:17;98512.22;;;-11.62;52.81
77077;BME280;66003;52.286;104.306;2023-02-11T12:29:03;98559.91;;;-11.40;52.50
77077;BME280;66003;52.286;104.306;2023-02-11T12:34:38;98563.25;;;-11.53;50.64
77077;BME280;66003;52.286;104.306;2023-02-11T12:37:33;98580.09;;;-11.62;51.98
77077;BME280;66003;52.286;104.306;2023-02-11T12:43:35;98578.66;;;-11.82;52.49
77077;BME280;66003;52.286;104.306;2023-02-11T12:59:47;98599.06;;;-12.57;52.87
77077;BME280;66003;52.286;104.306;2023-02-11T13:05:22;98528.09;;;-13.27;54.24
77077;BME280;66003;52.286;104.306;2023-02-11T13:07:55;98610.94;;;-12.55;52.81
77077;BME280;66003;52.286;104.306;2023-02-11T13:12:56;98615.22;;;-12.71;50.92
77077;BME280;66003;52.286;104.306;2023-02-11T13:16:03;98634.09;;;-13.05;51.21
77077;BME280;66003;52.286;104.306;2023-02-11T13:18:49;98622.00;;;-13.20;51.09
77077;BME280;66003;52.286;104.306;2023-02-11T13:27:29;98639.13;;;-13.72;51.54
77077;BME280;66003;52.286;104.306;2023-02-11T13:30:11;98639.22;;;-13.93;51.34
77077;BME280;66003;52.286;104.306;2023-02-11T13:38:21;98639.84;;;-14.25;51.75
77077;BME280;66003;52.286;104.306;2023-02-11T13:46:52;98654.00;;;-14.54;53.72
77077;BME280;66003;52.286;104.306;2023-02-11T13:49:31;98665.34;;;-14.59;53.65
77077;BME280;66003;52.286;104.306;2023-02-11T13:52:02;98631.75;;;-14.74;52.14
77077;BME280;66003;52.286;104.306;2023-02-11T13:54:36;98640.69;;;-14.82;52.03
77077;BME280;66003;52.286;104.306;2023-02-11T13:57:24;98683.28;;;-14.78;53.69
77077;BME280;66003;52.286;104.306;2023-02-11T13:59:51;98680.72;;;-14.78;53.05
77077;BME280;66003;52.286;104.306;2023-02-11T14:02:34;98696.22;;;-14.61;51.92
77077;BME280;66003;52.286;104.306;2023-02-11T14:05:30;98691.00;;;-15.20;54.25
77077;BME280;66003;52.286;104.306;2023-02-11T14:08:18;98657.16;;;-15.28;53.40
77077;BME280;66003;52.286;104.306;2023-02-11T14:16:19;98692.94;;;-14.85;51.78
77077;BME280;66003;52.286;104.306;2023-02-11T14:21:16;98697.28;;;-15.07;51.94
77077;BME280;66003;52.286;104.306;2023-02-11T14:23:45;98678.22;;;-15.22;51.80
77077;BME280;66003;52.286;104.306;2023-02-11T14:28:51;98706.72;;;-15.08;51.51
77077;BME280;66003;52.286;104.306;2023-02-11T14:37:13;98703.13;;;-15.24;51.46
77077;BME280;66003;52.286;104.306;2023-02-11T14:42:19;98695.66;;;-15.30;51.45
77077;BME280;66003;52.286;104.306;2023-02-11T14:44:52;98705.81;;;-15.27;53.15
77077;BME280;66003;52.286;104.306;2023-02-11T14:47:24;98658.50;;;-15.40;51.75
77077;BME280;66003;52.286;104.306;2023-02-11T14:49:56;98714.28;;;-15.05;51.06
77077;BME280;66003;52.286;104.306;2023-02-11T14:52:33;98703.53;;;-15.13;50.81
77077;BME280;66003;52.286;104.306;2023-02-11T14:55:12;98679.31;;;-15.48;50.89
77077;BME280;66003;52.286;104.306;2023-02-11T14:57:42;98707.97;;;-15.38;50.69
77077;BME280;66003;52.286;104.306;2023-02-11T15:00:19;98714.19;;;-15.45;50.84
77077;BME280;66003;52.286;104.306;2023-02-11T15:02:47;98722.63;;;-15.63;50.60
77077;BME280;66003;52.286;104.306;2023-02-11T15:07:50;98713.31;;;-15.88;50.75